Time;durP1;ratioP1;P1;durP2;ratioP2;P2;SDS_P1;SDS_P2;PMS_P1;PMS_P2;Temp;Humidity;BMP_temperature;BMP_pressure;BME280_temperature;BME280_humidity;BME280_pressure;Samples;Min_cycle;Max_cycle;Signal;HPM_P1;HPM_P2
2023/08/26 00:00:51;;;;;;;;;;;;;;;21.60;60.55;99987.44;4962163;28;7209;-73
2023/08/26 00:03:16;;;;;;;;;;;;;;;21.53;60.51;99990.94;4958077;28;6979;-73
2023/08/26 00:05:43;;;;;;;;;;;;;;;21.46;59.82;99988.38;4976579;28;6816;-73
2023/08/26 00:08:08;;;;;;;;;;;;;;;21.38;59.30;99992.75;4942688;28;7010;-73
2023/08/26 00:10:34;;;;;;;;;;;;;;;21.30;59.28;99999.72;4950116;28;6807;-73
2023/08/26 00:12:59;;;;;;;;;;;;;;;21.21;59.27;100006.69;4961587;28;6844;-73
2023/08/26 00:15:25;;;;;;;;;;;;;;;21.12;58.93;99992.81;4969013;28;6792;-73
2023/08/26 00:17:50;;;;;;;;;;;;;;;21.01;58.80;99987.63;4972722;28;7300;-73
2023/08/26 00:20:16;;;;;;;;;;;;;;;20.86;58.85;99999.81;4947713;28;7241;-72
2023/08/26 00:22:41;;;;;;;;;;;;;;;20.71;58.43;100002.38;4962824;28;6780;-72
2023/08/26 00:25:07;;;;;;;;;;;;;;;20.56;58.60;99996.28;4962013;28;6976;-73
2023/08/26 00:27:33;;;;;;;;;;;;;;;20.41;58.45;100004.94;4963312;28;6936;-73
2023/08/26 00:29:58;;;;;;;;;;;;;;;20.30;58.35;99991.94;4951147;28;6871;-73
2023/08/26 00:32:24;;;;;;;;;;;;;;;20.19;58.23;99999.72;4948292;28;7341;-73
2023/08/26 00:34:49;;;;;;;;;;;;;;;20.06;58.10;99998.81;4951326;28;6784;-73
2023/08/26 00:37:15;;;;;;;;;;;;;;;19.92;58.52;100003.94;4962500;28;7159;-73
2023/08/26 00:39:40;;;;;;;;;;;;;;;19.78;58.56;99996.09;4946252;28;7084;-73
2023/08/26 00:42:06;;;;;;;;;;;;;;;19.68;57.93;99996.91;4965208;28;6844;-73
2023/08/26 00:44:31;;;;;;;;;;;;;;;19.54;58.02;99992.53;4964287;28;6792;-73
2023/08/26 00:46:57;;;;;;;;;;;;;;;19.43;58.24;99991.63;4947485;28;7187;-73
2023/08/26 00:49:23;;;;;;;;;;;;;;;19.33;58.36;100000.25;4947166;28;6805;-73
2023/08/26 00:51:50;;;;;;;;;;;;;;;19.23;58.22;100000.19;4978572;28;6804;-73
2023/08/26 00:54:16;;;;;;;;;;;;;;;19.12;58.43;100001.81;4963183;28;6979;-73
2023/08/26 00:56:42;;;;;;;;;;;;;;;19.00;58.13;100011.28;4948735;28;7168;-73
2023/08/26 00:59:08;;;;;;;;;;;;;;;18.91;58.70;100003.38;4965145;28;6787;-73
2023/08/26 01:01:33;;;;;;;;;;;;;;;18.83;58.64;100010.25;4981298;28;6882;-73
2023/08/26 01:03:59;;;;;;;;;;;;;;;18.72;58.72;100005.84;4965802;28;6991;-73
2023/08/26 01:06:26;;;;;;;;;;;;;;;18.64;58.83;100015.31;4979504;28;7650;-73
2023/08/26 01:08:52;;;;;;;;;;;;;;;18.58;59.40;100020.44;4977484;28;6788;-73
2023/08/26 01:11:28;;;;;;;;;;;;;;;18.52;58.84;100013.47;4948695;28;6780;-72
2023/08/26 01:14:21;;;;;;;;;;;;;;;18.42;59.18;100007.31;4962201;28;6804;-73
2023/08/26 01:16:48;;;;;;;;;;;;;;;18.36;59.60;100017.66;4963470;28;7023;-73
2023/08/26 01:19:25;;;;;;;;;;;;;;;18.30;59.29;100017.56;4946516;28;7120;-72
2023/08/26 01:21:56;;;;;;;;;;;;;;;18.26;59.71;100024.44;4962418;28;6974;-73
2023/08/26 01:24:23;;;;;;;;;;;;;;;18.23;60.00;100023.53;4963438;28;6841;-73
2023/08/26 01:26:49;;;;;;;;;;;;;;;18.20;59.68;100033.91;4948205;28;7242;-73
2023/08/26 01:29:15;;;;;;;;;;;;;;;18.15;59.78;100028.66;4980623;28;6954;-73
2023/08/26 01:31:44;;;;;;;;;;;;;;;18.11;60.29;100029.50;4947939;28;6868;-73
2023/08/26 01:34:12;;;;;;;;;;;;;;;18.06;60.21;100037.22;4962496;28;9809;-73
2023/08/26 01:36:43;;;;;;;;;;;;;;;18.02;60.54;100043.16;4946684;28;6816;-73
2023/08/26 01:39:13;;;;;;;;;;;;;;;17.98;60.23;100036.22;4978505;28;6812;-73
2023/08/26 01:41:43;;;;;;;;;;;;;;;17.95;60.18;100030.97;4945169;28;6955;-73
2023/08/26 01:44:09;;;;;;;;;;;;;;;17.91;60.05;100030.06;4964071;28;6816;-73
2023/08/26 01:46:36;;;;;;;;;;;;;;;17.85;60.37;100028.28;4945436;28;7313;-73
2023/08/26 01:49:02;;;;;;;;;;;;;;;17.83;60.70;100024.81;4977032;28;6989;-73
2023/08/26 01:51:27;;;;;;;;;;;;;;;17.81;60.42;100029.09;4961882;28;6780;-73
2023/08/26 01:53:53;;;;;;;;;;;;;;;17.80;60.53;100035.16;4944369;28;7171;-73
2023/08/26 01:56:18;;;;;;;;;;;;;;;17.79;60.88;100033.41;4961621;28;6915;-73
2023/08/26 01:58:44;;;;;;;;;;;;;;;17.79;60.95;100043.78;4962990;28;6803;-73
2023/08/26 02:01:12;;;;;;;;;;;;;;;17.78;60.93;100049.81;4977192;28;7362;-73
2023/08/26 02:03:38;;;;;;;;;;;;;;;17.77;60.07;100040.31;4962004;28;6955;-74
2023/08/26 02:06:03;;;;;;;;;;;;;;;17.77;60.86;100045.50;4962106;28;6788;-72
2023/08/26 02:08:29;;;;;;;;;;;;;;;17.75;60.21;100042.88;4977840;28;6780;-73
2023/08/26 02:10:58;;;;;;;;;;;;;;;17.73;60.59;100041.97;4944903;28;6814;-73
2023/08/26 02:13:24;;;;;;;;;;;;;;;17.73;60.83;100043.69;4962219;28;6965;-72
2023/08/26 02:15:49;;;;;;;;;;;;;;;17.73;60.58;100046.28;4947172;28;6822;-71
2023/08/26 02:18:15;;;;;;;;;;;;;;;17.72;61.18;100044.53;4946374;28;7034;-71
2023/08/26 02:20:42;;;;;;;;;;;;;;;17.71;60.45;100048.00;4961898;28;7055;-71
2023/08/26 02:23:09;;;;;;;;;;;;;;;17.71;60.53;100048.00;4946417;28;7303;-71
2023/08/26 02:25:34;;;;;;;;;;;;;;;17.71;60.59;100054.03;4961303;28;6811;-71
2023/08/26 02:28:00;;;;;;;;;;;;;;;17.71;60.56;100048.00;4962210;28;7269;-70
2023/08/26 02:30:25;;;;;;;;;;;;;;;17.67;60.63;100043.59;4945891;28;6969;-71
2023/08/26 02:32:51;;;;;;;;;;;;;;;17.64;60.06;100047.03;4942163;28;6943;-71
2023/08/26 02:35:16;;;;;;;;;;;;;;;17.61;60.28;100041.78;4961827;28;7024;-71
2023/08/26 02:37:42;;;;;;;;;;;;;;;17.58;60.39;100047.84;4945228;28;6957;-70
2023/08/26 02:40:07;;;;;;;;;;;;;;;17.56;60.16;100051.25;4959820;28;6974;-71
2023/08/26 02:42:34;;;;;;;;;;;;;;;17.53;60.14;100049.47;4962090;28;6788;-71
2023/08/26 02:45:04;;;;;;;;;;;;;;;17.51;60.41;100046.00;4961106;28;7034;-70
2023/08/26 02:47:30;;;;;;;;;;;;;;;17.46;60.20;100039.88;4953265;28;6983;-70
2023/08/26 02:49:55;;;;;;;;;;;;;;;17.47;60.14;100044.19;4946742;28;8482;-71
2023/08/26 02:52:21;;;;;;;;;;;;;;;17.47;60.75;100037.31;4960414;28;6854;-71
2023/08/26 02:54:46;;;;;;;;;;;;;;;17.52;60.56;100036.50;4961555;28;6820;-71
2023/08/26 02:57:12;;;;;;;;;;;;;;;17.58;60.82;100032.28;4962599;28;6787;-70
2023/08/26 02:59:37;;;;;;;;;;;;;;;17.66;60.24;100044.44;4962358;28;7322;-70
2023/08/26 03:02:04;;;;;;;;;;;;;;;17.74;60.42;100037.66;4961450;28;6799;-71
2023/08/26 03:04:30;;;;;;;;;;;;;;;17.83;60.15;100044.69;4960805;28;6888;-71
2023/08/26 03:06:56;;;;;;;;;;;;;;;17.90;60.45;100039.59;4960429;28;6804;-71
2023/08/26 03:09:21;;;;;;;;;;;;;;;17.99;59.96;100048.34;4947447;28;6792;-71
2023/08/26 03:11:47;;;;;;;;;;;;;;;18.04;59.83;100041.50;4960685;28;6840;-71
2023/08/26 03:14:12;;;;;;;;;;;;;;;18.09;59.70;100039.84;4958887;28;6785;-71
2023/08/26 03:16:40;;;;;;;;;;;;;;;18.11;59.54;100042.47;4952927;28;6784;-71
2023/08/26 03:19:05;;;;;;;;;;;;;;;18.12;58.98;100044.19;4944655;28;6830;-70
2023/08/26 03:21:31;;;;;;;;;;;;;;;18.12;58.89;100039.88;4958515;28;6792;-70
2023/08/26 03:23:57;;;;;;;;;;;;;;;18.11;59.12;100038.13;4961662;28;6832;-70
2023/08/26 03:26:23;;;;;;;;;;;;;;;18.12;59.37;100045.06;4946990;28;7063;-71
2023/08/26 03:28:49;;;;;;;;;;;;;;;18.11;59.18;100045.91;4960884;28;6796;-70
2023/08/26 03:31:15;;;;;;;;;;;;;;;18.11;59.03;100047.66;4938305;28;6821;-71
2023/08/26 03:33:41;;;;;;;;;;;;;;;18.09;59.25;100045.03;4943987;28;6780;-71
2023/08/26 03:36:06;;;;;;;;;;;;;;;18.10;58.83;100045.88;4960360;28;6818;-71
2023/08/26 03:38:33;;;;;;;;;;;;;;;18.07;58.55;100053.63;4941218;28;6934;-71
2023/08/26 03:41:02;;;;;;;;;;;;;;;18.01;58.82;100047.50;4945156;28;6800;-70
2023/08/26 03:43:28;;;;;;;;;;;;;;;17.96;58.86;100050.88;4945632;28;6807;-71
2023/08/26 03:45:53;;;;;;;;;;;;;;;17.91;58.53;100053.41;4950382;28;6866;-71
2023/08/26 03:48:19;;;;;;;;;;;;;;;17.88;59.03;100055.97;4948957;28;6977;-71
2023/08/26 03:50:56;;;;;;;;;;;;;;;17.85;58.89;100053.34;4948089;28;7190;-70
2023/08/26 03:53:22;;;;;;;;;;;;;;;17.81;58.68;100055.03;4948753;28;6844;-71
2023/08/26 03:55:47;;;;;;;;;;;;;;;17.76;58.57;100059.25;4949938;28;7024;-71
2023/08/26 03:58:13;;;;;;;;;;;;;;;17.73;58.97;100061.81;4965104;28;6935;-71
2023/08/26 04:00:39;;;;;;;;;;;;;;;17.68;58.64;100064.34;4963993;28;6899;-71
2023/08/26 04:03:05;;;;;;;;;;;;;;;17.62;58.56;100064.25;4947139;28;6866;-72
2023/08/26 04:05:31;;;;;;;;;;;;;;;17.56;58.37;100059.00;4964800;28;7270;-71
2023/08/26 04:07:57;;;;;;;;;;;;;;;17.50;58.95;100057.22;4948951;28;7318;-72
2023/08/26 04:10:23;;;;;;;;;;;;;;;17.41;59.00;100057.94;4980571;28;7003;-71
2023/08/26 04:12:48;;;;;;;;;;;;;;;17.37;58.76;100058.75;4964417;28;6783;-71
2023/08/26 04:15:14;;;;;;;;;;;;;;;17.34;59.25;100071.66;4964657;28;6795;-71
2023/08/26 04:17:43;;;;;;;;;;;;;;;17.32;59.15;100066.47;4964720;28;6935;-71
2023/08/26 04:20:11;;;;;;;;;;;;;;;17.30;59.48;100073.34;4939854;28;7110;-72
2023/08/26 04:22:37;;;;;;;;;;;;;;;17.30;59.49;100073.34;4945418;28;7239;-72
2023/08/26 04:25:05;;;;;;;;;;;;;;;17.32;59.67;100079.41;4946121;28;7192;-72
2023/08/26 04:27:33;;;;;;;;;;;;;;;17.34;59.57;100075.13;4964182;28;6795;-72
2023/08/26 04:29:59;;;;;;;;;;;;;;;17.35;59.32;100078.59;4945637;28;6906;-71
2023/08/26 04:32:25;;;;;;;;;;;;;;;17.36;59.22;100080.31;4962736;28;6808;-71
2023/08/26 04:34:51;;;;;;;;;;;;;;;17.41;59.39;100083.00;4945284;28;7210;-71
2023/08/26 04:37:20;;;;;;;;;;;;;;;17.46;59.31;100070.94;4946831;28;6788;-71
2023/08/26 04:39:46;;;;;;;;;;;;;;;17.53;59.35;100075.38;4949803;28;6820;-72
2023/08/26 04:42:12;;;;;;;;;;;;;;;17.62;59.42;100078.09;4947780;28;7047;-71
2023/08/26 04:44:37;;;;;;;;;;;;;;;17.71;59.33;100079.09;4946616;28;6966;-71
2023/08/26 04:47:03;;;;;;;;;;;;;;;17.79;59.59;100081.78;4964940;28;7110;-71
2023/08/26 04:49:29;;;;;;;;;;;;;;;17.87;58.83;100082.75;4948741;28;7218;-72
2023/08/26 04:51:54;;;;;;;;;;;;;;;17.94;59.19;100083.69;4960840;28;7118;-71
2023/08/26 04:54:21;;;;;;;;;;;;;;;17.98;58.78;100088.09;4962050;28;7081;-71
2023/08/26 04:56:47;;;;;;;;;;;;;;;18.00;58.88;100091.56;4945652;28;7122;-71
2023/08/26 04:59:12;;;;;;;;;;;;;;;17.99;58.23;100097.59;4964453;28;6791;-71
2023/08/26 05:01:38;;;;;;;;;;;;;;;17.97;58.63;100099.31;4962977;28;6803;-71
2023/08/26 05:04:04;;;;;;;;;;;;;;;17.92;58.09;100104.44;4944157;28;7369;-71
2023/08/26 05:06:30;;;;;;;;;;;;;;;17.89;57.85;100104.38;4978071;28;6807;-71
2023/08/26 05:08:55;;;;;;;;;;;;;;;17.85;58.12;100103.44;4945834;28;7006;-72
2023/08/26 05:11:21;;;;;;;;;;;;;;;17.81;58.29;100100.81;4947391;28;6961;-71
2023/08/26 05:13:46;;;;;;;;;;;;;;;17.79;58.14;100108.56;4962590;28;6795;-72
2023/08/26 05:16:11;;;;;;;;;;;;;;;17.77;58.27;100110.28;4979037;28;6998;-71
2023/08/26 05:18:37;;;;;;;;;;;;;;;17.76;58.41;100108.50;4944610;28;6970;-71
2023/08/26 05:21:03;;;;;;;;;;;;;;;17.75;58.18;100106.78;4945538;28;6943;-71
2023/08/26 05:23:28;;;;;;;;;;;;;;;17.76;58.37;100113.69;4963704;28;7196;-71
2023/08/26 05:25:54;;;;;;;;;;;;;;;17.76;58.35;100114.59;4962882;28;6819;-71
2023/08/26 05:28:19;;;;;;;;;;;;;;;17.77;58.22;100118.91;4963235;28;6780;-71
2023/08/26 05:30:45;;;;;;;;;;;;;;;17.78;57.92;100117.19;4942162;28;6975;-71
2023/08/26 05:33:10;;;;;;;;;;;;;;;17.80;58.71;100122.38;4960363;28;6940;-71
2023/08/26 05:35:36;;;;;;;;;;;;;;;17.81;58.46;100116.34;4959809;28;6780;-71
2023/08/26 05:38:01;;;;;;;;;;;;;;;17.85;58.26;100118.16;4943864;28;7284;-71
2023/08/26 05:40:28;;;;;;;;;;;;;;;17.90;57.86;100114.78;4961645;28;6956;-72
2023/08/26 05:42:56;;;;;;;;;;;;;;;17.97;57.75;100127.81;4944426;28;8207;-71
2023/08/26 05:45:22;;;;;;;;;;;;;;;18.02;58.21;100123.56;4962554;28;7245;-71
2023/08/26 05:47:48;;;;;;;;;;;;;;;18.07;57.61;100124.53;4946806;28;7778;-71
2023/08/26 05:50:13;;;;;;;;;;;;;;;18.12;57.54;100124.59;4961932;28;6784;-71
2023/08/26 05:52:39;;;;;;;;;;;;;;;18.20;56.98;100127.28;4962749;28;6799;-72
2023/08/26 05:55:05;;;;;;;;;;;;;;;18.28;56.94;100125.66;4962589;28;6802;-71
2023/08/26 05:57:30;;;;;;;;;;;;;;;18.37;57.13;100123.16;4948397;28;7190;-71
2023/08/26 05:59:56;;;;;;;;;;;;;;;18.50;56.84;100123.28;4962293;28;6779;-72
2023/08/26 06:02:22;;;;;;;;;;;;;;;18.66;57.48;100117.41;4977749;28;6991;-71
2023/08/26 06:04:47;;;;;;;;;;;;;;;18.81;57.25;100115.81;4961106;28;6852;-72
2023/08/26 06:07:12;;;;;;;;;;;;;;;18.94;56.25;100117.69;4960075;28;6953;-72
2023/08/26 06:09:38;;;;;;;;;;;;;;;19.07;56.07;100110.03;4978072;28;6979;-72
2023/08/26 06:12:04;;;;;;;;;;;;;;;19.18;56.33;100116.16;4961145;28;6792;-72
2023/08/26 06:14:29;;;;;;;;;;;;;;;19.27;55.78;100115.38;4942415;28;7030;-72
2023/08/26 06:16:55;;;;;;;;;;;;;;;19.35;55.59;100120.63;4934260;28;7045;-72
2023/08/26 06:19:20;;;;;;;;;;;;;;;19.46;55.80;100118.09;4944014;28;7339;-72
2023/08/26 06:21:46;;;;;;;;;;;;;;;19.55;54.90;100118.16;4961560;28;6812;-72
2023/08/26 06:24:11;;;;;;;;;;;;;;;19.64;54.99;100117.38;4960000;28;6931;-72
2023/08/26 06:26:37;;;;;;;;;;;;;;;19.71;55.04;100111.34;4944353;28;6970;-72
2023/08/26 06:29:02;;;;;;;;;;;;;;;19.83;54.50;100108.81;4942218;28;7030;-72
2023/08/26 06:31:28;;;;;;;;;;;;;;;19.92;54.62;100117.53;4962068;28;6953;-72
2023/08/26 06:33:54;;;;;;;;;;;;;;;19.98;54.05;100112.34;4947667;28;7213;-71
2023/08/26 06:36:19;;;;;;;;;;;;;;;20.04;54.35;100109.78;4945765;28;6780;-72
2023/08/26 06:38:45;;;;;;;;;;;;;;;20.12;54.53;100112.41;4961839;28;6788;-72
2023/08/26 06:41:10;;;;;;;;;;;;;;;20.19;54.35;100108.13;4942430;28;7446;-72
2023/08/26 06:43:35;;;;;;;;;;;;;;;20.16;53.47;100110.69;4962164;28;6796;-71
2023/08/26 06:46:01;;;;;;;;;;;;;;;20.06;53.00;100105.47;4943395;28;7102;-72
2023/08/26 06:48:26;;;;;;;;;;;;;;;19.97;53.11;100102.81;4945121;28;6980;-72
2023/08/26 06:50:52;;;;;;;;;;;;;;;19.87;53.32;100094.09;4940575;28;6909;-72
2023/08/26 06:53:21;;;;;;;;;;;;;;;19.80;53.34;100095.78;4946073;28;6799;-71
2023/08/26 06:55:51;;;;;;;;;;;;;;;19.74;53.44;100095.75;4945704;28;7010;-72
2023/08/26 06:58:17;;;;;;;;;;;;;;;19.72;53.45;100100.09;4962358;28;6879;-71
2023/08/26 07:00:42;;;;;;;;;;;;;;;19.69;54.04;100090.53;4957699;28;6792;-72
2023/08/26 07:03:09;;;;;;;;;;;;;;;19.69;54.06;100090.53;4944489;28;7234;-72
2023/08/26 07:05:35;;;;;;;;;;;;;;;19.70;53.63;100088.78;4961204;28;6816;-72
2023/08/26 07:08:01;;;;;;;;;;;;;;;19.71;53.61;100093.16;4947271;28;7046;-72
2023/08/26 07:10:27;;;;;;;;;;;;;;;19.72;54.14;100084.47;4976882;28;7043;-72
2023/08/26 07:12:52;;;;;;;;;;;;;;;19.74;53.74;100092.28;4943637;28;6933;-72
2023/08/26 07:15:18;;;;;;;;;;;;;;;19.77;54.10;100081.91;4945996;28;6864;-71
2023/08/26 07:17:44;;;;;;;;;;;;;;;19.82;54.03;100085.38;4946001;28;6776;-72
2023/08/26 07:20:10;;;;;;;;;;;;;;;19.86;54.08;100087.16;4960205;28;7335;-72
2023/08/26 07:22:36;;;;;;;;;;;;;;;19.93;53.98;100088.94;4946250;28;7021;-71
2023/08/26 07:25:02;;;;;;;;;;;;;;;19.98;54.19;100081.16;4945115;28;7315;-72
2023/08/26 07:27:27;;;;;;;;;;;;;;;20.04;53.86;100073.38;4959786;28;6796;-72
2023/08/26 07:29:53;;;;;;;;;;;;;;;20.12;54.08;100073.41;4943190;28;6995;-72
2023/08/26 07:32:19;;;;;;;;;;;;;;;20.18;54.00;100068.22;4941492;28;6800;-72
2023/08/26 07:34:45;;;;;;;;;;;;;;;20.26;53.68;100068.25;4961185;28;7167;-72
2023/08/26 07:37:11;;;;;;;;;;;;;;;20.31;53.34;100063.94;4943563;28;6939;-72
2023/08/26 07:39:37;;;;;;;;;;;;;;;20.37;53.25;100069.13;4946063;28;6981;-72
2023/08/26 07:42:03;;;;;;;;;;;;;;;20.44;53.30;100071.75;4961364;28;6800;-72
2023/08/26 07:44:29;;;;;;;;;;;;;;;20.50;53.14;100075.22;4960847;28;7035;-72
2023/08/26 07:46:54;;;;;;;;;;;;;;;20.59;52.71;100074.41;4959940;28;8432;-72
2023/08/26 07:49:20;;;;;;;;;;;;;;;20.64;52.39;100072.66;4961499;28;6792;-71
2023/08/26 07:51:45;;;;;;;;;;;;;;;20.69;51.62;100083.06;4958988;28;7104;-71
2023/08/26 07:54:11;;;;;;;;;;;;;;;20.73;51.03;100082.22;4943228;28;6956;-72
2023/08/26 07:56:36;;;;;;;;;;;;;;;20.79;50.77;100086.56;4959960;28;7128;-71
2023/08/26 07:59:02;;;;;;;;;;;;;;;20.86;50.85;100083.13;4977172;28;6784;-72
2023/08/26 08:01:27;;;;;;;;;;;;;;;20.93;50.66;100090.06;4944341;28;6780;-71
2023/08/26 08:03:53;;;;;;;;;;;;;;;21.00;50.55;100084.88;4945994;28;6859;-72
2023/08/26 08:06:18;;;;;;;;;;;;;;;21.04;50.82;100081.38;4960467;28;6788;-71
2023/08/26 08:08:44;;;;;;;;;;;;;;;21.09;50.93;100090.94;4960774;28;6868;-71
2023/08/26 08:11:09;;;;;;;;;;;;;;;21.17;50.99;100093.56;4945190;28;7068;-72
2023/08/26 08:13:34;;;;;;;;;;;;;;;21.25;50.66;100090.94;4945895;28;6990;-71
2023/08/26 08:16:00;;;;;;;;;;;;;;;21.32;50.19;100095.28;4943631;28;6975;-72
2023/08/26 08:18:25;;;;;;;;;;;;;;;21.39;49.98;100092.63;4957268;28;6791;-72
2023/08/26 08:20:52;;;;;;;;;;;;;;;21.45;50.12;100096.13;4957317;28;7114;-71
2023/08/26 08:23:17;;;;;;;;;;;;;;;21.50;49.94;100091.75;4945362;28;7168;-71
2023/08/26 08:25:43;;;;;;;;;;;;;;;21.58;50.05;100090.88;4945704;28;6952;-72
2023/08/26 08:28:08;;;;;;;;;;;;;;;21.65;50.49;100106.50;4944174;28;6792;-72
2023/08/26 08:30:34;;;;;;;;;;;;;;;21.75;50.39;100096.06;4960685;28;6833;-71
2023/08/26 08:32:59;;;;;;;;;;;;;;;21.83;49.61;100094.31;4962109;28;6804;-71
2023/08/26 08:35:26;;;;;;;;;;;;;;;21.89;48.79;100098.63;4955037;28;7103;-71
2023/08/26 08:37:51;;;;;;;;;;;;;;;21.91;48.73;100099.50;4946267;28;7019;-71
2023/08/26 08:40:17;;;;;;;;;;;;;;;21.94;48.90;100089.06;4949376;28;6800;-71
2023/08/26 08:42:43;;;;;;;;;;;;;;;21.99;49.10;100089.91;4963601;28;6788;-71
2023/08/26 08:45:10;;;;;;;;;;;;;;;22.07;48.22;100082.06;4947020;28;7826;-71
2023/08/26 08:47:35;;;;;;;;;;;;;;;22.13;48.56;100081.16;4960176;28;7064;-71
2023/08/26 08:50:02;;;;;;;;;;;;;;;22.18;48.11;100079.38;4976789;28;7096;-71
2023/08/26 08:52:28;;;;;;;;;;;;;;;22.24;47.76;100089.78;4945074;28;7283;-71
2023/08/26 08:54:54;;;;;;;;;;;;;;;22.27;47.45;100086.31;4947926;28;7117;-71
2023/08/26 08:57:23;;;;;;;;;;;;;;;22.33;48.01;100091.47;4979845;28;6973;-71
2023/08/26 08:59:49;;;;;;;;;;;;;;;22.41;48.09;100091.47;4962813;28;7265;-71
2023/08/26 09:02:15;;;;;;;;;;;;;;;22.48;47.17;100098.34;4962047;28;7313;-71
2023/08/26 09:04:43;;;;;;;;;;;;;;;22.54;47.39;100100.09;4980686;28;6855;-71
2023/08/26 09:07:11;;;;;;;;;;;;;;;22.64;47.91;100101.75;4979280;28;6799;-71
2023/08/26 09:09:37;;;;;;;;;;;;;;;22.75;47.63;100096.47;4977949;28;8010;-71
2023/08/26 09:12:04;;;;;;;;;;;;;;;22.88;47.96;100094.63;4961510;28;7159;-71
2023/08/26 09:14:30;;;;;;;;;;;;;;;22.99;47.18;100099.78;4972158;28;7298;-71
2023/08/26 09:16:56;;;;;;;;;;;;;;;23.07;47.04;100092.72;4961342;28;7262;-71
2023/08/26 09:19:22;;;;;;;;;;;;;;;23.15;47.05;100095.28;4946062;28;6873;-71
2023/08/26 09:21:48;;;;;;;;;;;;;;;23.26;47.37;100103.03;4940937;28;6776;-71
2023/08/26 09:24:15;;;;;;;;;;;;;;;23.38;46.61;100100.34;4944954;28;7177;-71
2023/08/26 09:26:41;;;;;;;;;;;;;;;23.57;46.77;100087.09;4944634;28;7198;-71
2023/08/26 09:29:13;;;;;;;;;;;;;;;23.84;47.11;100095.47;4943567;28;7287;-70
2023/08/26 09:31:49;;;;;;;;;;;;;;;24.18;47.51;100083.75;4943534;28;7206;-71
2023/08/26 09:34:30;;;;;;;;;;;;;;;24.67;47.15;100097.91;4947211;28;6869;-71
2023/08/26 09:36:56;;;;;;;;;;;;;;;25.32;46.47;100095.97;4931234;28;7171;-71
2023/08/26 09:39:22;;;;;;;;;;;;;;;26.12;44.15;100079.56;4976332;28;6800;-71
2023/08/26 09:41:48;;;;;;;;;;;;;;;27.02;43.07;100080.19;4946322;28;6799;-71
2023/08/26 09:44:16;;;;;;;;;;;;;;;27.93;40.78;100084.72;4947096;28;6796;-71
2023/08/26 09:46:42;;;;;;;;;;;;;;;28.80;40.40;100078.59;4962179;28;6823;-71
2023/08/26 09:49:14;;;;;;;;;;;;;;;29.66;38.41;100066.00;4945928;28;7028;-71
2023/08/26 09:51:51;;;;;;;;;;;;;;;30.42;38.19;100070.16;4944048;28;7028;-71
2023/08/26 09:54:21;;;;;;;;;;;;;;;31.08;36.71;100061.28;4946411;28;6808;-71
2023/08/26 09:56:48;;;;;;;;;;;;;;;31.68;35.68;100068.41;4976245;28;6824;-72
2023/08/26 09:59:14;;;;;;;;;;;;;;;32.10;35.13;100068.28;4974448;28;7121;-71
2023/08/26 10:01:41;;;;;;;;;;;;;;;32.54;34.56;100072.41;4977466;28;6812;-72
2023/08/26 10:04:16;;;;;;;;;;;;;;;32.90;33.67;100073.28;4945935;28;6804;-71
2023/08/26 10:06:43;;;;;;;;;;;;;;;33.22;32.64;100073.44;4961538;28;6938;-71
2023/08/26 10:09:16;;;;;;;;;;;;;;;33.54;32.52;100072.69;4928687;28;7176;-72
2023/08/26 10:11:44;;;;;;;;;;;;;;;33.74;31.07;100072.47;4962376;28;6814;-71
2023/08/26 10:14:13;;;;;;;;;;;;;;;33.83;31.05;100078.22;4963275;28;7127;-71
2023/08/26 10:16:41;;;;;;;;;;;;;;;33.51;30.93;100079.03;4960504;28;7104;-72
2023/08/26 10:19:07;;;;;;;;;;;;;;;33.05;31.32;100087.59;4961300;28;6959;-71
2023/08/26 10:21:34;;;;;;;;;;;;;;;32.66;31.78;100084.22;4962624;28;6958;-71
2023/08/26 10:24:00;;;;;;;;;;;;;;;32.54;31.72;100081.19;4962779;28;6982;-71
2023/08/26 10:26:26;;;;;;;;;;;;;;;32.86;31.78;100080.53;4941521;28;6946;-71
2023/08/26 10:28:55;;;;;;;;;;;;;;;32.90;30.98;100073.28;4942980;28;6982;-71
2023/08/26 10:31:20;;;;;;;;;;;;;;;32.62;30.70;100079.97;4944984;28;7032;-71
2023/08/26 10:34:01;;;;;;;;;;;;;;;32.69;30.70;100076.09;4942979;28;7259;-71
2023/08/26 10:36:27;;;;;;;;;;;;;;;33.02;30.92;100091.25;4945421;28;7302;-71
2023/08/26 10:38:59;;;;;;;;;;;;;;;33.50;31.37;100083.50;4962711;28;6808;-72
2023/08/26 10:41:26;;;;;;;;;;;;;;;34.17;30.71;100087.88;4979236;28;7981;-71
2023/08/26 10:43:53;;;;;;;;;;;;;;;34.52;29.45;100084.13;4961901;28;6816;-71
2023/08/26 10:46:33;;;;;;;;;;;;;;;33.84;29.24;100083.47;4946470;28;7204;-71
2023/08/26 10:49:03;;;;;;;;;;;;;;;33.06;30.04;100090.19;4945492;28;6819;-70
2023/08/26 10:51:30;;;;;;;;;;;;;;;32.94;30.34;100089.00;4946657;28;7007;-71
2023/08/26 10:54:05;;;;;;;;;;;;;;;33.17;30.18;100088.75;4947259;28;6884;-70
2023/08/26 10:56:33;;;;;;;;;;;;;;;33.03;30.48;100085.03;4947300;28;7247;-70
2023/08/26 10:59:03;;;;;;;;;;;;;;;33.18;30.17;100087.81;4961190;28;6863;-70
2023/08/26 11:01:34;;;;;;;;;;;;;;;33.14;30.07;100086.28;4960449;28;7411;-70
2023/08/26 11:04:00;;;;;;;;;;;;;;;33.05;29.84;100083.16;4961918;28;7071;-71
2023/08/26 11:06:25;;;;;;;;;;;;;;;33.07;29.99;100086.59;4962561;28;7236;-71
2023/08/26 11:08:55;;;;;;;;;;;;;;;33.45;30.08;100072.22;4946350;28;6792;-71
2023/08/26 11:11:21;;;;;;;;;;;;;;;33.93;29.37;100075.00;4978757;28;6935;-71
2023/08/26 11:13:47;;;;;;;;;;;;;;;34.42;28.72;100065.22;4962301;28;6931;-71
2023/08/26 11:16:14;;;;;;;;;;;;;;;34.71;27.46;100067.13;4946946;28;6877;-71
2023/08/26 11:18:42;;;;;;;;;;;;;;;34.53;27.20;100067.28;4942293;28;6861;-71
2023/08/26 11:21:07;;;;;;;;;;;;;;;33.83;28.43;100065.81;4939053;28;7392;-71
2023/08/26 11:23:33;;;;;;;;;;;;;;;33.70;28.96;100070.06;4951741;28;6787;-71
2023/08/26 11:25:59;;;;;;;;;;;;;;;33.95;28.58;100064.28;4942195;28;7023;-70
2023/08/26 11:28:27;;;;;;;;;;;;;;;33.72;28.18;100063.75;4953490;28;6780;-71
2023/08/26 11:30:54;;;;;;;;;;;;;;;32.83;28.71;100068.28;4956085;28;6870;-71
2023/08/26 11:33:21;;;;;;;;;;;;;;;31.77;29.37;100068.91;4943972;28;6807;-70
2023/08/26 11:35:48;;;;;;;;;;;;;;;31.16;30.21;100069.75;4975368;28;7067;-70
2023/08/26 11:38:16;;;;;;;;;;;;;;;31.50;30.89;100064.78;4968720;28;7151;-70
2023/08/26 11:40:42;;;;;;;;;;;;;;;32.06;30.34;100062.28;4947883;28;6967;-70
2023/08/26 11:43:12;;;;;;;;;;;;;;;32.12;29.41;100066.44;4945077;28;6795;-70
2023/08/26 11:45:39;;;;;;;;;;;;;;;31.94;30.07;100062.88;4939475;28;7277;-71
2023/08/26 11:48:05;;;;;;;;;;;;;;;31.92;29.60;100059.41;4959995;28;6808;-72
2023/08/26 11:50:33;;;;;;;;;;;;;;;31.58;29.80;100061.78;4943929;28;6892;-71
2023/08/26 11:53:01;;;;;;;;;;;;;;;31.17;30.13;100070.63;4945089;28;6997;-71
2023/08/26 11:55:29;;;;;;;;;;;;;;;30.73;30.36;100059.22;4977521;28;6812;-71
2023/08/26 11:57:55;;;;;;;;;;;;;;;30.28;30.33;100062.81;4941786;28;7397;-70
2023/08/26 12:00:21;;;;;;;;;;;;;;;29.86;31.07;100062.59;4957186;28;7241;-71
2023/08/26 12:02:48;;;;;;;;;;;;;;;29.51;31.18;100063.00;4944073;28;6788;-70
2023/08/26 12:05:18;;;;;;;;;;;;;;;29.20;31.93;100073.75;4964451;28;7003;-71
2023/08/26 12:07:47;;;;;;;;;;;;;;;28.90;33.16;100080.03;4980246;28;6894;-70
2023/08/26 12:10:14;;;;;;;;;;;;;;;28.68;33.26;100066.66;4965230;28;7253;-70
2023/08/26 12:12:41;;;;;;;;;;;;;;;28.77;33.64;100070.78;4980434;28;6938;-70
2023/08/26 12:15:12;;;;;;;;;;;;;;;29.06;33.11;100072.47;4948599;28;7324;-70
2023/08/26 12:17:51;;;;;;;;;;;;;;;29.43;33.32;100065.00;4947793;28;6841;-71
2023/08/26 12:20:26;;;;;;;;;;;;;;;30.05;33.36;100061.94;4981912;28;7353;-71
2023/08/26 12:22:54;;;;;;;;;;;;;;;31.00;33.46;100060.75;4964405;28;7035;-71
2023/08/26 12:25:23;;;;;;;;;;;;;;;32.08;31.60;100052.47;4945167;28;7003;-70
2023/08/26 12:27:48;;;;;;;;;;;;;;;32.66;30.59;100047.91;4949470;28;7134;-71
2023/08/26 12:30:14;;;;;;;;;;;;;;;32.61;30.30;100065.88;4945849;28;6952;-71
2023/08/26 12:32:39;;;;;;;;;;;;;;;32.07;29.83;100060.50;4963270;28;6999;-70
2023/08/26 12:35:05;;;;;;;;;;;;;;;31.40;30.24;100052.91;4941458;28;7266;-70
2023/08/26 12:37:32;;;;;;;;;;;;;;;31.21;31.64;100058.13;4964061;28;6983;-71
2023/08/26 12:39:59;;;;;;;;;;;;;;;31.61;31.41;100056.38;4941770;28;6820;-70
2023/08/26 12:42:25;;;;;;;;;;;;;;;31.92;30.77;100048.81;4945278;28;6999;-71
2023/08/26 12:44:50;;;;;;;;;;;;;;;31.75;30.42;100046.94;4948049;28;6796;-71